Terminal Aerodrome Forecast
Issued by NWS

Home | Current Version | Previous Version | Text Only | Print | Product List | Glossary On
Versions: 1 2 3 4 5 6 7 8 9 10 11 12 13
000
FTUS45 KTFX 280520
TAFCTB
TAF
KCTB 280520Z 2806/2906 26013KT P6SM SCT150
     FM281500 26020G27KT P6SM FEW070
     FM290100 24015KT P6SM SCT070=

USA.gov is the U.S. government's official web portal to all federal, state and local government web resources and services.